| time (UTC) | temp F | wind direction | speed knots | gust knots | rain 1hr in | rain 24hr in | rain mn in | humidity % | barometer mb |
| 20260510044522 | 64 | 121 | 1.7 | 5.2 | 0.04 | 0.04 | 0.04 | 89 | 1008.8 |
| 20260510043022 | 64 | 8 | 1.7 | 4.3 | 0.03 | 0.03 | 0.03 | 88 | 1011.2 |
| 20260510041528 | 65 | 353 | 2.6 | 8.7 | 0.03 | 0.03 | 0.03 | 85 | 1011.2 |
| 20260510040018 | 69 | 339 | 3.5 | 13.0 | 0.02 | 0.02 | 0.02 | 74 | 1011.9 |
| 20260510034517 | 76 | 19 | 4.3 | 10.4 | 0.00 | 0.00 | 0.00 | 55 | 1011.0 |
| 20260510033015 | 76 | 138 | 0.0 | 6.1 | 0.00 | 0.00 | 0.00 | 53 | 1007.1 |
| 20260510031515 | 77 | 139 | 0.9 | 5.2 | 0.00 | 0.00 | 0.00 | 53 | 1006.0 |
| 20260510030014 | 77 | 58 | 2.6 | 8.7 | 0.00 | 0.00 | 0.00 | 51 | 1006.1 |
| 20260510024514 | 77 | 100 | 1.7 | 6.1 | 0.00 | 0.00 | 0.00 | 52 | 1006.1 |
| 20260510023030 | 77 | 66 | 3.5 | 10.4 | 0.00 | 0.00 | 0.00 | 50 | 1006.2 |
| 20260510021513 | 77 | 105 | 1.7 | 7.8 | 0.00 | 0.00 | 0.00 | 50 | 1006.6 |
| 20260510020012 | 77 | 245 | 0.0 | 6.1 | 0.00 | 0.00 | 0.00 | 49 | 1006.0 |
| 20260510014512 | 77 | 236 | 0.9 | 4.3 | 0.00 | 0.00 | 0.00 | 47 | 1005.4 |
| 20260510013013 | 78 | 208 | 0.9 | 4.3 | 0.00 | 0.00 | 0.00 | 46 | 1005.7 |
| 20260510011513 | 79 | 230 | 0.0 | 3.5 | 0.00 | 0.00 | 0.00 | 45 | 1005.7 |
| 20260510010013 | 79 | 212 | 0.0 | 4.3 | 0.00 | 0.00 | 0.00 | 44 | 1005.9 |
| 20260510004508 | 80 | 94 | 0.0 | 5.2 | 0.00 | 0.00 | 0.00 | 44 | 1005.7 |
| 20260510003008 | 80 | 107 | 0.0 | 4.3 | 0.00 | 0.00 | 0.00 | 43 | 1005.6 |
| 20260510001507 | 81 | 197 | 0.0 | 5.2 | 0.00 | 0.00 | 0.00 | 42 | 1005.6 |
| 20260510000006 | 81 | 113 | 1.7 | 7.0 | 0.00 | 0.00 | 0.00 | 41 | 1005.5 |
| 20260509234505 | 82 | 240 | 0.9 | 3.5 | 0.00 | 0.03 | 0.00 | 39 | 1005.5 |
| 20260509233004 | 84 | 106 | 0.9 | 7.0 | 0.00 | 0.03 | 0.00 | 38 | 1005.7 |
| 20260509231504 | 85 | 122 | 1.7 | 7.8 | 0.00 | 0.03 | 0.00 | 39 | 1005.8 |
| 20260509230003 | 85 | 115 | 0.0 | 7.8 | 0.00 | 0.03 | 0.00 | 38 | 1005.8 |
| 20260509224623 | 86 | 120 | 0.0 | 5.2 | 0.00 | 0.31 | 0.00 | 37 | 1006.1 |
| 20260509223059 | 86 | 104 | 0.0 | 8.7 | 0.00 | 0.31 | 0.00 | 34 | 1006.3 |
| 20260509221557 | 87 | 127 | 0.9 | 7.0 | 0.00 | 0.31 | 0.00 | 33 | 1006.4 |
| 20260509220055 | 86 | 231 | 0.0 | 7.0 | 0.00 | 0.31 | 0.00 | 34 | 1006.6 |
| 20260509214555 | 87 | 100 | 0.0 | 6.1 | 0.00 | 0.31 | 0.00 | 32 | 1006.6 |
| 20260509213107 | 87 | 115 | 1.7 | 5.2 | 0.00 | 0.31 | 0.00 | 32 | 1006.7 |
| 20260509211612 | 87 | 233 | 1.7 | 4.3 | 0.00 | 0.31 | 0.00 | 30 | 1006.8 |
| 20260509210056 | 87 | 185 | 0.0 | 5.2 | 0.00 | 0.31 | 0.00 | 33 | 1007.1 |
| 20260509204558 | 86 | 122 | 0.0 | 6.1 | 0.00 | 0.31 | 0.00 | 36 | 1007.3 |
| 20260509203055 | 86 | 211 | 0.9 | 4.3 | 0.00 | 0.31 | 0.00 | 33 | 1007.3 |
| 20260509201541 | 86 | 213 | 1.7 | 6.1 | 0.00 | 0.31 | 0.00 | 34 | 1007.5 |
| 20260509200040 | 85 | 103 | 0.9 | 5.2 | 0.00 | 0.31 | 0.00 | 38 | 1007.7 |
| 20260509194539 | 85 | 359 | 0.0 | 3.5 | 0.00 | 0.31 | 0.00 | 38 | 1008.0 |
| 20260509193035 | 85 | 345 | 0.9 | 3.5 | 0.00 | 0.31 | 0.00 | 38 | 1008.1 |
| 20260509191533 | 84 | 230 | 1.7 | 5.2 | 0.00 | 0.31 | 0.00 | 41 | 1008.3 |
| 20260509190041 | 84 | 120 | 0.9 | 4.3 | 0.00 | 0.31 | 0.00 | 43 | 1008.4 |
| 20260509184530 | 84 | 184 | 0.0 | 2.6 | 0.00 | 0.31 | 0.00 | 42 | 1008.6 |
| 20260509183033 | 84 | 242 | 0.9 | 4.3 | 0.00 | 0.31 | 0.00 | 39 | 1008.8 |
| 20260509181528 | 84 | 124 | 0.0 | 3.5 | 0.00 | 0.31 | 0.00 | 40 | 1008.9 |
| 20260509180025 | 83 | 114 | 0.0 | 2.6 | 0.00 | 0.31 | 0.00 | 42 | 1009.1 |
| 20260509174524 | 82 | 224 | 0.9 | 4.3 | 0.00 | 0.31 | 0.00 | 43 | 1009.5 |
| 20260509173019 | 81 | 224 | 0.0 | 3.5 | 0.00 | 0.31 | 0.00 | 47 | 1009.7 |
| 20260509171518 | 80 | 182 | 0.9 | 4.3 | 0.00 | 0.31 | 0.00 | 47 | 1010.0 |
| 20260509170015 | 80 | 223 | 0.9 | 5.2 | 0.00 | 0.31 | 0.00 | 49 | 1010.2 |
| 20260509164512 | 79 | 114 | 0.9 | 5.2 | 0.00 | 0.31 | 0.00 | 49 | 1010.2 |
| 20260509163010 | 78 | 221 | 1.7 | 6.1 | 0.00 | 0.31 | 0.00 | 49 | 1010.3 |
| 20260509161508 | 78 | 244 | 0.9 | 3.5 | 0.00 | 0.31 | 0.00 | 55 | 1010.2 |
| 20260509160006 | 77 | 214 | 1.7 | 6.1 | 0.00 | 0.31 | 0.00 | 60 | 1010.3 |
| 20260509154503 | 77 | 221 | 0.0 | 4.3 | 0.00 | 0.31 | 0.00 | 58 | 1010.3 |
| 20260509153102 | 75 | 221 | 0.9 | 5.2 | 0.00 | 0.31 | 0.00 | 59 | 1010.1 |
| 20260509151557 | 74 | 94 | 0.0 | 2.6 | 0.00 | 0.31 | 0.00 | 59 | 1010.3 |
| 20260509150051 | 72 | 129 | 0.0 | 3.5 | 0.00 | 0.31 | 0.00 | 73 | 1010.2 |
| 20260509144547 | 71 | 21 | 0.9 | 2.6 | 0.00 | 0.31 | 0.00 | 79 | 1009.9 |
| 20260509143050 | 69 | 62 | 0.0 | 2.6 | 0.00 | 0.31 | 0.00 | 82 | 1009.9 |
| 20260509141544 | 69 | 34 | 0.9 | 2.6 | 0.00 | 0.31 | 0.00 | 84 | 1010.0 |
| 20260509140039 | 67 | 221 | 0.0 | 0.0 | 0.00 | 0.31 | 0.00 | 87 | 1010.0 |
| 20260509134538 | 65 | 221 | 0.0 | 0.0 | 0.00 | 0.31 | 0.00 | 91 | 1010.0 |
| 20260509133029 | 63 | 221 | 0.0 | 0.0 | 0.00 | 0.31 | 0.00 | 92 | 1009.9 |
| 20260509131530 | 62 | 221 | 0.0 | 0.0 | 0.00 | 0.31 | 0.00 | 94 | 1009.7 |
| 20260509130024 | 61 | 221 | 0.0 | 0.0 | 0.00 | 0.31 | 0.00 | 96 | 1009.4 |
| 20260509124523 | 59 | 221 | 0.0 | 0.0 | 0.00 | 0.31 | 0.00 | 96 | 1009.4 |
| 20260509123023 | 59 | 221 | 0.0 | 0.0 | 0.00 | 0.31 | 0.00 | 96 | 1009.2 |
| 20260509121528 | 58 | 221 | 0.0 | 0.0 | 0.00 | 0.31 | 0.00 | 96 | 1009.2 |
| 20260509120022 | 58 | 221 | 0.0 | 0.0 | 0.00 | 0.31 | 0.00 | 96 | 1009.2 |
| 20260509114521 | 58 | 221 | 0.0 | 0.0 | 0.00 | 0.31 | 0.00 | 96 | 1008.8 |
| 20260509113021 | 57 | 221 | 0.0 | 0.0 | 0.00 | 0.31 | 0.00 | 96 | 1008.7 |
| 20260509111520 | 57 | 221 | 0.0 | 0.0 | 0.00 | 0.31 | 0.00 | 96 | 1008.5 |
| 20260509110018 | 57 | 221 | 0.0 | 0.0 | 0.00 | 0.31 | 0.00 | 96 | 1008.5 |
| 20260509104518 | 58 | 221 | 0.0 | 0.0 | 0.00 | 0.31 | 0.00 | 96 | 1008.4 |
| 20260509103016 | 58 | 221 | 0.0 | 0.0 | 0.00 | 0.31 | 0.00 | 96 | 1008.4 |
| 20260509101515 | 58 | 221 | 0.0 | 0.0 | 0.00 | 0.31 | 0.00 | 96 | 1008.6 |
| 20260509100014 | 58 | 221 | 0.0 | 0.0 | 0.00 | 0.31 | 0.00 | 96 | 1008.9 |
| 20260509094511 | 58 | 221 | 0.0 | 0.0 | 0.00 | 0.31 | 0.00 | 96 | 1009.0 |
| 20260509093010 | 58 | 221 | 0.0 | 0.0 | 0.00 | 0.31 | 0.00 | 96 | 1009.1 |
| 20260509091518 | 59 | 221 | 0.0 | 0.0 | 0.00 | 0.31 | 0.00 | 97 | 1009.1 |
| 20260509090008 | 59 | 221 | 0.0 | 0.0 | 0.00 | 0.31 | 0.00 | 97 | 1008.9 |
| 20260509084517 | 59 | 221 | 0.0 | 0.0 | 0.00 | 0.31 | 0.00 | 97 | 1009.0 |
| 20260509083007 | 59 | 221 | 0.0 | 0.0 | 0.00 | 0.31 | 0.00 | 97 | 1008.9 |
| 20260509081508 | 59 | 221 | 0.0 | 0.0 | 0.00 | 0.31 | 0.00 | 97 | 1008.9 |
| 20260509080004 | 59 | 221 | 0.0 | 0.0 | 0.00 | 0.31 | 0.00 | 97 | 1009.2 |
| 20260509074502 | 60 | 221 | 0.0 | 0.0 | 0.00 | 0.31 | 0.00 | 97 | 1009.2 |
| 20260509073216 | 60 | 221 | 0.0 | 0.0 | 0.00 | 0.31 | 0.00 | 97 | 1009.4 |
| 20260509071559 | 60 | 221 | 0.0 | 0.0 | 0.00 | 0.31 | 0.00 | 97 | 1009.4 |
| 20260509070100 | 60 | 221 | 0.0 | 0.0 | 0.00 | 0.31 | 0.00 | 97 | 1009.5 |
| 20260509064556 | 61 | 221 | 0.0 | 0.0 | 0.00 | 0.31 | 0.00 | 97 | 1009.5 |
| 20260509063055 | 61 | 190 | 0.0 | 0.0 | 0.00 | 0.31 | 0.00 | 97 | 1009.4 |
| 20260509061557 | 61 | 190 | 0.0 | 0.0 | 0.00 | 0.31 | 0.00 | 97 | 1009.7 |
| 20260509060052 | 61 | 31 | 0.0 | 0.0 | 0.00 | 0.31 | 0.00 | 97 | 1009.7 |
| 20260509054559 | 61 | 31 | 0.0 | 0.0 | 0.00 | 0.31 | 0.00 | 97 | 1009.7 |
| 20260509053053 | 62 | 31 | 0.0 | 0.0 | 0.00 | 0.31 | 0.00 | 97 | 1009.7 |
| 20260509051558 | 61 | 31 | 0.0 | 0.0 | 0.00 | 0.31 | 0.00 | 97 | 1009.6 |
| 20260509050047 | 61 | 31 | 0.0 | 1.7 | 0.00 | 0.31 | 0.00 | 97 | 1009.4 |